createdAt,value
2019-05-20T00:00:00.239Z,17.70
2019-05-20T00:02:28.798Z,17.60
2019-05-20T00:04:57.349Z,17.50
2019-05-20T00:07:25.940Z,17.60
2019-05-20T00:09:54.515Z,17.50
2019-05-20T00:12:23.071Z,17.50
2019-05-20T00:14:51.642Z,17.50
2019-05-20T00:17:20.183Z,17.50
2019-05-20T00:19:50.753Z,17.50
2019-05-20T00:22:20.176Z,17.40
2019-05-20T00:24:48.696Z,17.30
2019-05-20T00:27:17.217Z,17.30
2019-05-20T00:29:45.789Z,17.20
2019-05-20T00:32:14.295Z,17.20
2019-05-20T00:34:42.778Z,17.20
2019-05-20T00:37:11.290Z,17.20
2019-05-20T00:39:39.868Z,17.10
2019-05-20T00:42:08.450Z,17.10
2019-05-20T00:44:36.945Z,17.10
2019-05-20T00:47:05.582Z,17.00
2019-05-20T00:49:34.077Z,17.00
2019-05-20T00:52:02.730Z,16.90
2019-05-20T00:54:31.238Z,16.90
2019-05-20T00:56:59.762Z,16.80
2019-05-20T00:59:28.335Z,16.80
2019-05-20T01:01:56.929Z,16.80
2019-05-20T01:04:25.499Z,16.80
2019-05-20T01:06:54.008Z,16.80
2019-05-20T01:09:22.491Z,16.80
2019-05-20T01:11:51.050Z,16.80
2019-05-20T01:14:19.720Z,16.70
2019-05-20T01:16:48.780Z,16.70
2019-05-20T01:19:17.315Z,16.70
2019-05-20T01:21:45.876Z,16.70
2019-05-20T01:24:14.538Z,16.70
2019-05-20T01:26:43.114Z,16.70
2019-05-20T01:29:11.666Z,16.60
2019-05-20T01:31:40.160Z,16.60
2019-05-20T01:34:08.636Z,16.50
2019-05-20T01:36:37.172Z,16.50
2019-05-20T01:39:07.014Z,16.50
2019-05-20T01:41:35.607Z,16.50
2019-05-20T01:44:04.418Z,16.50
2019-05-20T01:46:33.000Z,16.50
2019-05-20T01:49:01.522Z,16.50
2019-05-20T01:51:30.115Z,16.40
2019-05-20T01:53:58.671Z,16.40
2019-05-20T01:56:27.273Z,16.40
2019-05-20T01:58:57.372Z,16.30
2019-05-20T02:01:26.016Z,16.30
2019-05-20T02:03:54.561Z,16.30
2019-05-20T02:06:23.071Z,16.30
2019-05-20T02:08:51.563Z,16.30
2019-05-20T02:11:20.170Z,16.20
2019-05-20T02:13:53.334Z,16.20
2019-05-20T02:16:23.861Z,16.20
2019-05-20T02:18:52.347Z,16.20
2019-05-20T02:21:20.975Z,16.10
2019-05-20T02:23:49.507Z,16.10
2019-05-20T02:26:18.038Z,16.10
2019-05-20T02:28:46.601Z,16.00
2019-05-20T02:31:15.106Z,16.00
2019-05-20T02:33:51.874Z,16.00
2019-05-20T02:36:13.879Z,16.00
2019-05-20T02:38:42.428Z,16.00
2019-05-20T02:41:10.977Z,16.00
2019-05-20T02:43:39.736Z,16.00
2019-05-20T02:46:08.365Z,16.00
2019-05-20T02:48:37.135Z,15.90
2019-05-20T02:51:05.742Z,15.90
2019-05-20T02:53:34.417Z,15.90
2019-05-20T02:56:03.041Z,15.90
2019-05-20T02:58:31.699Z,15.90
2019-05-20T03:01:00.267Z,15.90
2019-05-20T03:03:28.851Z,15.90
2019-05-20T03:05:57.455Z,15.80
2019-05-20T03:08:26.047Z,15.80
2019-05-20T03:10:54.645Z,15.80
2019-05-20T03:13:23.221Z,15.80
2019-05-20T03:15:51.883Z,15.70
2019-05-20T03:18:20.521Z,15.70
2019-05-20T03:20:49.082Z,15.70
2019-05-20T03:23:17.651Z,15.70
2019-05-20T03:25:46.349Z,15.70
2019-05-20T03:28:14.980Z,15.70
2019-05-20T03:30:43.898Z,15.80
2019-05-20T03:33:12.594Z,15.80
2019-05-20T03:35:41.130Z,15.80
2019-05-20T03:38:09.684Z,15.80
2019-05-20T03:40:38.288Z,15.80
2019-05-20T03:43:06.867Z,15.90
2019-05-20T03:45:35.449Z,15.90
2019-05-20T03:48:04.093Z,15.90
2019-05-20T03:50:32.592Z,16.00
2019-05-20T03:53:01.169Z,16.00
2019-05-20T03:55:29.730Z,16.10
2019-05-20T03:57:58.242Z,16.10
2019-05-20T04:00:47.466Z,16.10
2019-05-20T04:03:17.047Z,16.20
2019-05-20T04:05:45.631Z,16.30
2019-05-20T04:08:14.216Z,16.30
2019-05-20T04:10:42.913Z,16.30
2019-05-20T04:13:11.496Z,16.40
2019-05-20T04:15:40.053Z,16.40
2019-05-20T04:18:08.639Z,16.40
2019-05-20T04:20:37.194Z,16.50
2019-05-20T04:23:05.829Z,16.50
2019-05-20T04:25:34.398Z,16.60
2019-05-20T04:28:03.068Z,16.70
2019-05-20T04:30:31.549Z,16.70
2019-05-20T04:33:00.118Z,16.80
2019-05-20T04:35:28.678Z,16.90
2019-05-20T04:37:57.290Z,17.00
2019-05-20T04:40:26.877Z,17.00
2019-05-20T04:42:55.455Z,17.10
2019-05-20T04:45:24.030Z,17.00
2019-05-20T04:47:52.640Z,17.00
2019-05-20T04:50:21.205Z,17.00
2019-05-20T04:52:49.777Z,17.00
2019-05-20T04:55:18.336Z,17.00
2019-05-20T04:57:46.903Z,17.00
2019-05-20T05:00:17.431Z,17.00
2019-05-20T05:02:46.028Z,17.00
2019-05-20T05:05:14.666Z,17.00
2019-05-20T05:07:43.159Z,17.00
2019-05-20T05:10:12.971Z,16.90
2019-05-20T05:12:41.634Z,16.90
2019-05-20T05:15:11.045Z,16.90
2019-05-20T05:17:39.592Z,17.00
2019-05-20T05:20:17.693Z,17.10
2019-05-20T05:22:39.202Z,17.20
2019-05-20T05:25:07.855Z,17.40
2019-05-20T05:27:36.472Z,17.50
2019-05-20T05:30:08.747Z,17.70
2019-05-20T05:32:43.694Z,17.80
2019-05-20T05:35:17.836Z,17.80
2019-05-20T05:37:46.503Z,17.90
2019-05-20T05:40:15.512Z,17.90
2019-05-20T05:42:44.117Z,17.80
2019-05-20T05:45:14.148Z,17.80
2019-05-20T05:47:42.624Z,17.90
2019-05-20T05:50:11.423Z,18.00
2019-05-20T05:52:40.166Z,18.10
2019-05-20T05:55:08.891Z,18.40
2019-05-20T05:57:37.437Z,18.70
2019-05-20T06:00:07.669Z,18.80
2019-05-20T06:02:41.168Z,19.00
2019-05-20T06:05:07.441Z,19.00
2019-05-20T06:07:39.262Z,19.10
2019-05-20T06:10:08.079Z,19.30
2019-05-20T06:12:36.650Z,19.50
2019-05-20T06:15:08.731Z,19.60
2019-05-20T06:17:37.377Z,19.70
2019-05-20T06:20:07.043Z,19.80
2019-05-20T06:22:35.573Z,20.00
2019-05-20T06:25:05.332Z,20.20
2019-05-20T06:27:33.904Z,20.40
2019-05-20T06:30:02.413Z,20.50
2019-05-20T06:32:30.995Z,20.60
2019-05-20T06:34:59.575Z,20.70
2019-05-20T06:37:32.788Z,20.90
2019-05-20T06:40:01.384Z,21.00
2019-05-20T06:42:29.960Z,21.20
2019-05-20T06:44:58.848Z,21.40
2019-05-20T06:47:27.611Z,21.60
2019-05-20T06:49:56.186Z,21.70
2019-05-20T06:52:35.405Z,21.70
2019-05-20T06:54:54.913Z,21.70
2019-05-20T06:57:23.981Z,21.80
2019-05-20T06:59:52.721Z,21.80
2019-05-20T07:02:21.251Z,22.30
2019-05-20T07:04:49.772Z,23.00
2019-05-20T07:07:21.325Z,23.50
2019-05-20T07:09:48.559Z,24.10
2019-05-20T07:12:17.061Z,24.40
2019-05-20T07:14:45.650Z,24.60
2019-05-20T07:17:14.221Z,24.50
2019-05-20T07:19:42.790Z,24.20
2019-05-20T07:22:11.360Z,24.10
2019-05-20T07:24:39.842Z,24.10
2019-05-20T07:27:09.131Z,24.10
2019-05-20T07:29:37.637Z,24.00
2019-05-20T07:32:06.310Z,24.10
2019-05-20T07:34:34.869Z,24.40
2019-05-20T07:37:04.177Z,24.70
2019-05-20T07:39:32.832Z,25.00
2019-05-20T07:42:01.403Z,25.50
2019-05-20T07:44:29.896Z,25.90
2019-05-20T07:46:58.482Z,26.20
2019-05-20T07:49:27.369Z,26.50
2019-05-20T07:51:56.838Z,26.70
2019-05-20T07:54:26.331Z,26.80
2019-05-20T07:56:57.231Z,26.80
2019-05-20T07:59:28.228Z,26.70
2019-05-20T08:01:56.822Z,26.80
2019-05-20T08:04:25.541Z,26.80
2019-05-20T08:06:54.138Z,27.10
2019-05-20T08:09:22.619Z,27.10
2019-05-20T08:11:51.204Z,26.90
2019-05-20T08:14:19.767Z,27.10
2019-05-20T08:16:48.348Z,27.30
2019-05-20T08:19:16.957Z,27.30
2019-05-20T08:21:45.504Z,27.50
2019-05-20T08:24:14.079Z,27.90
2019-05-20T08:26:42.698Z,28.00
2019-05-20T08:29:11.318Z,28.20
2019-05-20T08:31:39.886Z,28.40
2019-05-20T08:34:08.476Z,29.00
2019-05-20T08:36:37.006Z,29.00
2019-05-20T08:39:07.870Z,29.10
2019-05-20T08:41:37.130Z,30.00
2019-05-20T08:44:05.678Z,30.80
2019-05-20T08:46:34.252Z,30.30
2019-05-20T08:49:02.826Z,30.60
2019-05-20T08:51:31.442Z,30.90
2019-05-20T08:54:00.010Z,31.10
2019-05-20T08:56:28.832Z,30.70
2019-05-20T08:58:57.422Z,30.30
2019-05-20T09:01:27.548Z,30.30
2019-05-20T09:03:56.078Z,30.80
2019-05-20T09:06:24.654Z,30.60
2019-05-20T09:08:53.222Z,31.30
2019-05-20T09:11:24.984Z,31.10
2019-05-20T09:13:53.492Z,31.50
2019-05-20T09:16:22.113Z,31.90
2019-05-20T09:18:50.742Z,31.90
2019-05-20T09:21:19.297Z,31.50
2019-05-20T09:23:47.850Z,32.00
2019-05-20T09:26:16.522Z,31.80
2019-05-20T09:28:45.124Z,32.20
2019-05-20T09:31:13.866Z,32.20
2019-05-20T09:33:42.731Z,32.10
2019-05-20T09:36:11.432Z,32.00
2019-05-20T09:38:39.985Z,31.90
2019-05-20T09:41:08.565Z,31.70
2019-05-20T09:43:38.881Z,32.10
2019-05-20T09:46:08.489Z,31.70
2019-05-20T09:48:37.394Z,31.10
2019-05-20T09:51:05.923Z,31.20
2019-05-20T09:53:34.487Z,31.60
2019-05-20T09:56:03.089Z,31.80
2019-05-20T09:58:31.634Z,31.40
2019-05-20T10:01:00.159Z,32.50
2019-05-20T10:03:28.691Z,32.30
2019-05-20T10:05:57.278Z,32.30
2019-05-20T10:08:37.645Z,32.40
2019-05-20T10:10:59.606Z,32.30
2019-05-20T10:13:26.254Z,32.50
2019-05-20T10:15:54.873Z,32.30
2019-05-20T10:18:36.555Z,31.70
2019-05-20T10:20:53.662Z,32.30
2019-05-20T10:23:22.218Z,31.10
2019-05-20T10:25:50.788Z,31.40
2019-05-20T10:28:19.334Z,31.90
2019-05-20T10:30:47.892Z,31.20
2019-05-20T10:33:16.393Z,30.40
2019-05-20T10:35:45.029Z,31.00
2019-05-20T10:38:13.606Z,30.20
2019-05-20T10:40:42.805Z,30.20
2019-05-20T10:43:11.365Z,29.70
2019-05-20T10:45:39.922Z,30.40
2019-05-20T10:48:09.132Z,30.30
2019-05-20T10:50:37.909Z,30.40
2019-05-20T10:53:06.577Z,30.00
2019-05-20T10:55:35.125Z,29.20
2019-05-20T10:58:03.896Z,29.00
2019-05-20T11:00:32.753Z,28.00
2019-05-20T11:03:01.292Z,27.40
2019-05-20T11:05:29.896Z,27.00
2019-05-20T11:07:58.543Z,26.70
2019-05-20T11:10:27.231Z,26.60
2019-05-20T11:12:55.797Z,26.30
2019-05-20T11:15:24.361Z,25.70
2019-05-20T11:17:52.945Z,25.60
2019-05-20T11:20:22.274Z,25.60
2019-05-20T11:22:50.901Z,25.30
2019-05-20T11:25:20.963Z,25.10
2019-05-20T11:27:49.591Z,24.90
2019-05-20T11:30:18.393Z,24.90
2019-05-20T11:32:46.970Z,25.00
2019-05-20T11:35:16.811Z,24.90
2019-05-20T11:37:45.474Z,24.90
2019-05-20T11:40:14.895Z,24.80
2019-05-20T11:42:43.738Z,24.80
2019-05-20T11:45:13.976Z,24.90
2019-05-20T11:47:42.579Z,24.90
2019-05-20T11:50:11.989Z,25.10
2019-05-20T11:52:40.582Z,25.10
2019-05-20T11:55:10.252Z,25.20
2019-05-20T11:57:38.913Z,25.20
2019-05-20T12:00:09.971Z,25.10
2019-05-20T12:02:42.184Z,25.00
2019-05-20T12:05:10.809Z,25.10
2019-05-20T12:07:39.399Z,25.00
2019-05-20T12:10:09.902Z,25.10
2019-05-20T12:12:38.626Z,25.00
2019-05-20T12:15:09.491Z,24.90
2019-05-20T12:17:37.999Z,24.90
2019-05-20T12:20:11.891Z,24.90
2019-05-20T12:22:39.584Z,24.90
2019-05-20T12:25:08.481Z,25.10
2019-05-20T12:27:37.069Z,25.10
2019-05-20T12:30:07.769Z,25.20
2019-05-20T12:32:37.343Z,25.30
2019-05-20T12:35:07.563Z,25.40
2019-05-20T12:37:36.129Z,25.50
2019-05-20T12:40:08.259Z,25.40
2019-05-20T12:42:37.169Z,25.60
2019-05-20T12:45:09.932Z,25.40
2019-05-20T12:47:38.694Z,25.30
2019-05-20T12:50:08.106Z,25.30
2019-05-20T12:52:36.766Z,25.40
2019-05-20T12:55:09.528Z,25.30
2019-05-20T12:57:36.906Z,25.10
2019-05-20T13:00:13.785Z,24.90
2019-05-20T13:02:42.664Z,24.90
2019-05-20T13:05:11.876Z,25.00
2019-05-20T13:07:40.437Z,25.00
2019-05-20T13:10:26.546Z,25.10
2019-05-20T13:12:40.429Z,25.10
2019-05-20T13:15:10.139Z,25.10
2019-05-20T13:17:43.849Z,25.10
2019-05-20T13:20:09.143Z,24.90
2019-05-20T13:22:37.727Z,24.80
2019-05-20T13:25:06.571Z,24.80
2019-05-20T13:27:35.130Z,24.60
2019-05-20T13:30:07.562Z,24.60
2019-05-20T13:32:36.224Z,24.60
2019-05-20T13:35:06.417Z,24.60
2019-05-20T13:37:35.004Z,24.50
2019-05-20T13:40:05.101Z,24.50
2019-05-20T13:42:33.701Z,24.40
2019-05-20T13:45:02.298Z,24.50
2019-05-20T13:47:30.884Z,24.30
2019-05-20T13:49:59.404Z,24.30
2019-05-20T13:52:28.099Z,24.20
2019-05-20T13:54:56.643Z,24.10
2019-05-20T13:57:25.248Z,24.10
2019-05-20T13:59:53.841Z,24.00
2019-05-20T14:02:22.385Z,24.00
2019-05-20T14:04:50.944Z,24.00
2019-05-20T14:07:19.468Z,23.90
2019-05-20T14:09:48.029Z,23.90
2019-05-20T14:12:16.574Z,23.80
2019-05-20T14:14:45.160Z,23.70
2019-05-20T14:17:13.735Z,23.70
2019-05-20T14:19:42.427Z,23.70
2019-05-20T14:22:11.016Z,23.60
2019-05-20T14:24:39.626Z,23.60
2019-05-20T14:27:08.202Z,23.40
2019-05-20T14:29:36.807Z,23.30
2019-05-20T14:32:05.492Z,23.20
2019-05-20T14:34:34.086Z,23.10
2019-05-20T14:37:02.609Z,23.00
2019-05-20T14:39:31.262Z,22.90
2019-05-20T14:41:59.854Z,22.80
2019-05-20T14:44:28.426Z,22.80
2019-05-20T14:46:56.980Z,22.80
2019-05-20T14:49:25.560Z,22.80
2019-05-20T14:51:54.213Z,22.70
2019-05-20T14:54:22.841Z,22.60
2019-05-20T14:56:51.412Z,22.50
2019-05-20T14:59:19.943Z,22.60
2019-05-20T15:01:48.515Z,22.60
2019-05-20T15:04:17.151Z,22.50
2019-05-20T15:06:45.755Z,22.50
2019-05-20T15:09:14.365Z,22.40
2019-05-20T15:11:42.967Z,22.40
2019-05-20T15:14:11.561Z,22.30
2019-05-20T15:16:40.162Z,22.30
2019-05-20T15:19:08.789Z,22.20
2019-05-20T15:21:37.465Z,22.10
2019-05-20T15:24:06.101Z,22.00
2019-05-20T15:26:34.698Z,22.00
2019-05-20T15:29:04.328Z,22.00
2019-05-20T15:31:33.460Z,21.90
2019-05-20T15:34:02.132Z,21.90
2019-05-20T15:36:31.965Z,21.80
2019-05-20T15:39:00.633Z,21.70
2019-05-20T15:41:29.276Z,21.40
2019-05-20T15:43:57.835Z,20.50
2019-05-20T15:46:26.459Z,19.60
2019-05-20T15:48:55.015Z,19.00
2019-05-20T15:51:23.616Z,18.50
2019-05-20T15:53:52.219Z,18.20
2019-05-20T15:56:20.823Z,18.00
2019-05-20T15:58:49.528Z,17.90
2019-05-20T16:01:18.107Z,17.80
2019-05-20T16:03:50.535Z,17.80
2019-05-20T16:06:16.938Z,17.90
2019-05-20T16:08:45.489Z,18.00
2019-05-20T16:11:14.032Z,18.00
2019-05-20T16:13:42.651Z,18.10
2019-05-20T16:16:13.126Z,18.10
2019-05-20T16:18:41.492Z,18.10
2019-05-20T16:21:10.102Z,18.10
2019-05-20T16:23:38.762Z,18.20
2019-05-20T16:26:07.426Z,18.20
2019-05-20T16:28:35.994Z,18.30
2019-05-20T16:31:04.685Z,18.30
2019-05-20T16:33:33.276Z,18.30
2019-05-20T16:36:02.062Z,18.40
2019-05-20T16:38:30.602Z,18.40
2019-05-20T16:40:59.303Z,18.50
2019-05-20T16:43:27.882Z,18.60
2019-05-20T16:45:56.500Z,18.60
2019-05-20T16:48:25.122Z,18.60
2019-05-20T16:50:56.424Z,18.70
2019-05-20T16:53:25.075Z,18.70
2019-05-20T16:55:53.731Z,18.80
2019-05-20T16:58:22.405Z,18.80
2019-05-20T17:00:51.103Z,18.90
2019-05-20T17:03:20.892Z,18.90
2019-05-20T17:05:49.547Z,19.00
2019-05-20T17:08:18.137Z,19.00
2019-05-20T17:10:46.807Z,19.10
2019-05-20T17:13:15.416Z,19.20
2019-05-20T17:15:44.693Z,19.20
2019-05-20T17:18:14.876Z,19.20
2019-05-20T17:20:45.924Z,19.30
2019-05-20T17:23:13.978Z,19.40
2019-05-20T17:25:42.606Z,19.50
2019-05-20T17:28:11.325Z,19.50
2019-05-20T17:30:45.515Z,19.50
2019-05-20T17:33:10.383Z,19.60
2019-05-20T17:35:39.223Z,19.50
2019-05-20T17:38:08.071Z,19.50
2019-05-20T17:40:37.292Z,19.60
2019-05-20T17:43:05.979Z,19.50
2019-05-20T17:45:34.681Z,19.50
2019-05-20T17:48:04.752Z,19.50
2019-05-20T17:50:33.488Z,19.50
2019-05-20T17:53:02.363Z,19.40
2019-05-20T17:55:32.154Z,19.40
2019-05-20T17:58:00.808Z,19.40
2019-05-20T18:00:29.549Z,19.40
2019-05-20T18:02:58.618Z,19.40
2019-05-20T18:05:27.468Z,19.50
2019-05-20T18:07:56.189Z,19.50
2019-05-20T18:10:25.395Z,19.60
2019-05-20T18:12:54.198Z,19.60
2019-05-20T18:15:22.841Z,19.60
2019-05-20T18:17:51.856Z,19.50
2019-05-20T18:20:22.495Z,19.30
2019-05-20T18:22:51.683Z,19.10
2019-05-20T18:25:31.437Z,18.80
2019-05-20T18:28:00.056Z,18.60
2019-05-20T18:30:32.474Z,18.50
2019-05-20T18:33:01.186Z,18.50
2019-05-20T18:35:31.648Z,18.40
2019-05-20T18:38:01.690Z,18.40
2019-05-20T18:40:31.161Z,18.40
2019-05-20T18:43:00.141Z,18.30
2019-05-20T18:45:28.870Z,18.30
2019-05-20T18:47:58.537Z,18.30
2019-05-20T18:50:30.631Z,18.20
2019-05-20T18:53:01.054Z,18.10
2019-05-20T18:55:29.714Z,18.10
2019-05-20T18:57:58.331Z,18.10
2019-05-20T19:00:27.327Z,18.10
2019-05-20T19:02:56.153Z,18.10
2019-05-20T19:05:26.710Z,18.10
2019-05-20T19:07:56.456Z,18.00
2019-05-20T19:10:25.501Z,18.00
2019-05-20T19:12:54.738Z,18.00
2019-05-20T19:15:24.786Z,18.00
2019-05-20T19:17:54.173Z,18.00
2019-05-20T19:20:23.318Z,18.00
2019-05-20T19:22:53.430Z,17.90
2019-05-20T19:25:22.074Z,17.90
2019-05-20T19:27:51.432Z,17.80
2019-05-20T19:30:20.311Z,17.80
2019-05-20T19:32:49.696Z,17.70
2019-05-20T19:35:18.359Z,17.70
2019-05-20T19:37:49.309Z,17.70
2019-05-20T19:40:19.435Z,17.60
2019-05-20T19:42:49.790Z,17.50
2019-05-20T19:45:18.600Z,17.50
2019-05-20T19:47:50.747Z,17.50
2019-05-20T19:50:19.488Z,17.40
2019-05-20T19:52:48.423Z,17.40
2019-05-20T19:55:18.995Z,17.30
2019-05-20T19:57:47.442Z,17.30
2019-05-20T20:00:18.628Z,17.30
2019-05-20T20:02:48.835Z,17.20
2019-05-20T20:05:17.737Z,17.20
2019-05-20T20:07:46.691Z,17.20
2019-05-20T20:10:15.569Z,17.20
2019-05-20T20:12:44.450Z,17.10
2019-05-20T20:15:20.044Z,17.10
2019-05-20T20:17:48.672Z,17.00
2019-05-20T20:20:18.050Z,16.90
2019-05-20T20:22:46.694Z,16.90
2019-05-20T20:25:15.999Z,16.80
2019-05-20T20:27:44.620Z,16.70
2019-05-20T20:30:13.494Z,16.70
2019-05-20T20:32:42.232Z,16.70
2019-05-20T20:35:11.331Z,16.60
2019-05-20T20:37:40.031Z,16.60
2019-05-20T20:40:08.869Z,16.60
2019-05-20T20:42:37.517Z,16.60
2019-05-20T20:45:07.075Z,16.50
2019-05-20T20:47:41.873Z,16.50
2019-05-20T20:50:06.541Z,16.40
2019-05-20T20:52:35.142Z,16.40
2019-05-20T20:55:04.827Z,16.40
2019-05-20T20:57:33.365Z,16.30
2019-05-20T21:00:02.109Z,16.30
2019-05-20T21:02:30.719Z,16.20
2019-05-20T21:04:59.289Z,16.20
2019-05-20T21:07:27.856Z,16.10
2019-05-20T21:09:56.478Z,16.10
2019-05-20T21:12:25.046Z,16.00
2019-05-20T21:14:53.658Z,16.00
2019-05-20T21:17:22.218Z,16.00
2019-05-20T21:19:50.788Z,15.90
2019-05-20T21:22:19.294Z,15.90
2019-05-20T21:24:47.804Z,15.90
2019-05-20T21:27:16.395Z,15.80
2019-05-20T21:29:44.977Z,15.80
2019-05-20T21:32:13.518Z,15.80
2019-05-20T21:34:42.137Z,15.80
2019-05-20T21:37:10.673Z,15.80
2019-05-20T21:39:39.253Z,15.70
2019-05-20T21:42:07.810Z,15.70
2019-05-20T21:44:36.403Z,15.70
2019-05-20T21:47:04.986Z,15.60
2019-05-20T21:49:33.554Z,15.50
2019-05-20T21:52:02.056Z,15.50
2019-05-20T21:54:30.663Z,15.50
2019-05-20T21:56:59.792Z,15.50
2019-05-20T21:59:28.343Z,15.50
2019-05-20T22:01:56.831Z,15.50
2019-05-20T22:04:25.338Z,15.40
2019-05-20T22:06:53.879Z,15.40
2019-05-20T22:09:22.420Z,15.40
2019-05-20T22:11:50.924Z,15.40
2019-05-20T22:14:19.535Z,15.30
2019-05-20T22:16:48.192Z,15.30
2019-05-20T22:19:16.686Z,15.30
2019-05-20T22:21:52.279Z,15.30
2019-05-20T22:24:20.759Z,15.30
2019-05-20T22:26:49.336Z,15.20
2019-05-20T22:29:17.819Z,15.20
2019-05-20T22:32:22.565Z,15.20
2019-05-20T22:34:53.608Z,15.20
2019-05-20T22:37:21.392Z,15.10
2019-05-20T22:39:49.944Z,15.10
2019-05-20T22:42:18.465Z,15.10
2019-05-20T22:44:47.042Z,15.00
2019-05-20T22:47:15.649Z,15.00
2019-05-20T22:49:44.131Z,15.00
2019-05-20T22:52:12.712Z,15.00
2019-05-20T22:54:41.206Z,15.00
2019-05-20T22:57:09.819Z,14.90
2019-05-20T22:59:38.374Z,14.90
2019-05-20T23:02:07.015Z,14.90
2019-05-20T23:04:35.558Z,14.90
2019-05-20T23:07:04.240Z,14.80
2019-05-20T23:09:32.809Z,14.90
2019-05-20T23:12:01.457Z,14.80
2019-05-20T23:14:30.045Z,14.80
2019-05-20T23:16:58.572Z,14.80
2019-05-20T23:19:27.117Z,14.80
2019-05-20T23:21:55.637Z,14.80
2019-05-20T23:24:24.193Z,14.80
2019-05-20T23:26:52.891Z,14.70
2019-05-20T23:29:21.443Z,14.70
2019-05-20T23:31:49.954Z,14.70
2019-05-20T23:34:18.502Z,14.70
2019-05-20T23:36:47.079Z,14.70
2019-05-20T23:39:15.645Z,14.70
2019-05-20T23:41:44.163Z,14.70
2019-05-20T23:44:12.746Z,14.60
2019-05-20T23:46:41.324Z,14.60
2019-05-20T23:49:09.819Z,14.60
2019-05-20T23:51:38.351Z,14.60
2019-05-20T23:54:06.926Z,14.60
2019-05-20T23:56:35.435Z,14.60
2019-05-20T23:59:03.998Z,14.60
